Página principal
METAR-TAF:

METAR-TAF

Aeroportos :

Aeroporto Internacional Grantley Adams

Bridgetown, Barbados

latitude: 13-04N, longitude: 059-29W, altura: 50 m

Observação actual do tempo

O boletim foi feito há 1 hora e 35 minutos, às 00:00 UTC
Vento 12 kt de este
Temperatura 28°C
Humidade 84%
Pressão 1012 hPa
Visibilidade 10 km ou mais
Poucas nuvensa uma altura de 1800 ft

METAR: TBPB 040000Z 09012KT 9999 FEW018 28/25 Q1012 NOSIG

Hora: 21:35 (01:35 UTC)

Previsão

O boletim foi feito há 2 horas e 35 minutos, às 23:00 UTC
Previsão válida de 04 às 00 UTC a 04 às 24 UTC
Vento 13 kt de este
Visibilidade 10 km ou mais
Nuvens dispersasa uma altura de 1800 ft
Probabilidade 30% :
Temporariamente
de 04 às 03 UTC a 04 às 09 UTC
Nuvens fragmentadasa uma altura de 1500 ft
aguaceiros de chuva

TAF: TBPB 032300Z 0400/0424 09013KT 9999 SCT018 PROB30 TEMPO 0403/0409 SHRA BKN015

Observações e previsões do tempo de mais de 4000 aeroportos (mensagens METAR e TAF).

As estações disponíveis são os pontos amarelos e vermelhos sobre o mapa.

Mova o rato sobre o mapa para ver o nome da estação.

Depois clique no ponto para visualizar as observações e previsões meteorológicas.

Para alterar o mapa : clique nos botões verdes com uma cruz preta para aumentar o zoom; no botão verde com uma pitada de zoom; ou nas setas verdes para mapas adjacentes.


METAR-TAF: